createdAt,value
2018-08-16T00:02:00.067Z,101101.66
2018-08-16T00:04:31.033Z,101102.95
2018-08-16T00:06:59.980Z,101100.47
2018-08-16T00:09:29.019Z,101102.79
2018-08-16T00:11:58.749Z,101101.27
2018-08-16T00:14:27.609Z,101102.56
2018-08-16T00:16:56.512Z,101102.97
2018-08-16T00:19:28.110Z,101095.22
2018-08-16T00:21:56.984Z,101098.05
2018-08-16T00:24:25.862Z,101097.68
2018-08-16T00:26:54.784Z,101096.02
2018-08-16T00:29:23.994Z,101092.27
2018-08-16T00:31:52.999Z,101089.63
2018-08-16T00:34:21.917Z,101092.27
2018-08-16T00:36:50.810Z,101092.98
2018-08-16T00:39:19.679Z,101093.82
2018-08-16T00:41:48.632Z,101090.41
2018-08-16T00:44:17.429Z,101091.80
2018-08-16T00:46:46.474Z,101091.67
2018-08-16T00:49:16.491Z,101091.55
2018-08-16T00:51:45.388Z,101089.33
2018-08-16T00:54:14.269Z,101088.96
2018-08-16T00:56:43.669Z,101088.59
2018-08-16T00:59:13.600Z,101086.66
2018-08-16T01:01:42.350Z,101086.06
2018-08-16T01:04:11.221Z,101080.91
2018-08-16T01:06:40.024Z,101081.71
2018-08-16T01:09:10.254Z,101080.15
2018-08-16T01:11:38.974Z,101080.08
2018-08-16T01:14:08.961Z,101077.02
2018-08-16T01:16:37.704Z,101086.64
2018-08-16T01:19:06.555Z,101082.28
2018-08-16T01:21:35.325Z,101083.11
2018-08-16T01:24:04.320Z,101084.70
2018-08-16T01:26:33.098Z,101081.32
2018-08-16T01:29:02.095Z,101082.61
2018-08-16T01:31:30.925Z,101083.89
2018-08-16T01:33:59.816Z,101084.51
2018-08-16T01:36:28.719Z,101083.56
2018-08-16T01:38:57.649Z,101078.54
2018-08-16T01:41:26.574Z,101077.13
2018-08-16T01:43:55.420Z,101077.41
2018-08-16T01:46:24.344Z,101075.19
2018-08-16T01:48:53.370Z,101076.30
2018-08-16T01:51:22.108Z,101066.73
2018-08-16T01:53:50.950Z,101070.91
2018-08-16T01:56:19.746Z,101067.63
2018-08-16T01:58:48.515Z,101064.59
2018-08-16T02:01:17.542Z,101069.74
2018-08-16T02:03:46.414Z,101067.94
2018-08-16T02:06:15.203Z,101065.83
2018-08-16T02:08:44.047Z,101064.78
2018-08-16T02:11:12.906Z,101063.30
2018-08-16T02:13:41.891Z,101061.58
2018-08-16T02:16:10.606Z,101052.08
2018-08-16T02:18:39.341Z,101059.27
2018-08-16T02:21:08.299Z,101056.45
2018-08-16T02:23:37.114Z,101065.61
2018-08-16T02:26:06.182Z,101059.60
2018-08-16T02:28:34.965Z,101060.22
2018-08-16T02:31:03.783Z,101057.65
2018-08-16T02:33:32.598Z,101058.11
2018-08-16T02:36:01.499Z,101051.63
2018-08-16T02:38:30.311Z,101051.63
2018-08-16T02:40:59.086Z,101057.21
2018-08-16T02:43:27.951Z,101057.39
2018-08-16T02:45:56.875Z,101050.78
2018-08-16T02:48:25.837Z,101047.44
2018-08-16T02:50:54.698Z,101044.16
2018-08-16T02:53:23.436Z,101055.16
2018-08-16T02:55:52.480Z,101049.70
2018-08-16T02:58:21.227Z,101047.23
2018-08-16T03:00:49.963Z,101048.28
2018-08-16T03:03:18.783Z,101048.28
2018-08-16T03:05:47.686Z,101045.30
2018-08-16T03:08:16.539Z,101040.36
2018-08-16T03:10:45.384Z,101042.02
2018-08-16T03:13:14.154Z,101038.70
2018-08-16T03:15:43.029Z,101031.38
2018-08-16T03:18:11.967Z,101027.50
2018-08-16T03:20:40.866Z,101029.06
2018-08-16T03:23:09.616Z,101032.24
2018-08-16T03:25:38.726Z,101023.91
2018-08-16T03:28:07.509Z,101025.50
2018-08-16T03:30:36.534Z,101024.81
2018-08-16T03:33:05.444Z,101028.27
2018-08-16T03:35:34.214Z,101025.74
2018-08-16T03:38:04.070Z,101022.43
2018-08-16T03:40:32.949Z,101017.77
2018-08-16T03:43:01.790Z,101016.59
2018-08-16T03:45:30.909Z,101021.67
2018-08-16T03:47:59.904Z,101013.82
2018-08-16T03:50:28.914Z,101009.71
2018-08-16T03:52:57.686Z,101005.66
2018-08-16T03:55:26.511Z,101007.02
2018-08-16T03:57:55.206Z,101011.95
2018-08-16T04:00:24.134Z,101008.88
2018-08-16T04:02:53.058Z,101001.55
2018-08-16T04:05:22.002Z,101000.72
2018-08-16T04:07:50.844Z,101004.25
2018-08-16T04:10:19.739Z,101000.48
2018-08-16T04:12:48.625Z,100999.96
2018-08-16T04:15:17.674Z,100997.58
2018-08-16T04:17:46.474Z,101000.86
2018-08-16T04:20:15.391Z,101003.28
2018-08-16T04:22:44.291Z,101005.36
2018-08-16T04:25:13.186Z,101003.28
2018-08-16T04:27:42.028Z,101001.45
2018-08-16T04:30:10.804Z,101002.66
2018-08-16T04:32:39.645Z,101001.75
2018-08-16T04:35:08.554Z,101003.93
2018-08-16T04:37:37.412Z,101010.16
2018-08-16T04:40:06.402Z,101010.47
2018-08-16T04:42:35.379Z,101006.83
2018-08-16T04:45:05.057Z,101004.33
2018-08-16T04:47:33.889Z,101006.77
2018-08-16T04:50:02.743Z,101007.92
2018-08-16T04:52:31.606Z,101005.30
2018-08-16T04:55:00.486Z,101009.13
2018-08-16T04:57:29.432Z,101010.66
2018-08-16T04:59:58.289Z,101009.74
2018-08-16T05:02:27.259Z,101011.48
2018-08-16T05:04:56.123Z,101010.89
2018-08-16T05:07:25.219Z,101010.48
2018-08-16T05:09:54.221Z,101012.78
2018-08-16T05:12:23.129Z,101014.70
2018-08-16T05:14:52.014Z,101016.59
2018-08-16T05:17:20.991Z,101017.89
2018-08-16T05:19:49.851Z,101016.66
2018-08-16T05:22:18.713Z,101022.22
2018-08-16T05:24:47.530Z,101018.79
2018-08-16T05:27:16.313Z,101017.84
2018-08-16T05:29:45.082Z,101018.00
2018-08-16T05:32:14.069Z,101019.77
2018-08-16T05:34:43.089Z,101014.52
2018-08-16T05:37:11.898Z,101006.45
2018-08-16T05:39:40.722Z,101012.26
2018-08-16T05:42:09.758Z,101007.47
2018-08-16T05:44:38.688Z,101008.17
2018-08-16T05:47:07.738Z,101011.85
2018-08-16T05:49:36.604Z,101005.87
2018-08-16T05:52:05.597Z,101001.98
2018-08-16T05:54:34.418Z,101009.34
2018-08-16T05:57:03.369Z,101004.59
2018-08-16T05:59:32.237Z,101009.70
2018-08-16T06:02:01.163Z,101012.74
2018-08-16T06:04:30.055Z,101006.19
2018-08-16T06:06:59.049Z,101002.74
2018-08-16T06:09:28.031Z,100998.59
2018-08-16T06:11:56.904Z,100998.75
2018-08-16T06:14:25.823Z,100997.75
2018-08-16T06:16:54.774Z,101003.66
2018-08-16T06:19:23.680Z,100999.15
2018-08-16T06:21:52.535Z,100996.42
2018-08-16T06:24:21.449Z,100999.23
2018-08-16T06:26:50.289Z,100990.54
2018-08-16T06:29:19.147Z,100997.95
2018-08-16T06:31:48.115Z,100996.09
2018-08-16T06:34:16.951Z,101001.78
2018-08-16T06:36:45.795Z,100996.91
2018-08-16T06:39:15.670Z,100997.38
2018-08-16T06:41:44.732Z,100997.13
2018-08-16T06:44:13.584Z,100995.28
2018-08-16T06:46:42.545Z,100993.15
2018-08-16T06:49:11.448Z,100990.44
2018-08-16T06:51:40.511Z,100982.48
2018-08-16T06:54:09.381Z,100981.33
2018-08-16T06:56:38.380Z,100987.27
2018-08-16T06:59:07.275Z,100982.83
2018-08-16T07:01:36.171Z,100982.03
2018-08-16T07:04:05.151Z,100975.13
2018-08-16T07:06:34.118Z,100972.52
2018-08-16T07:09:03.103Z,100970.20
2018-08-16T07:11:32.239Z,100974.23
2018-08-16T07:14:01.180Z,100970.29
2018-08-16T07:16:30.061Z,100975.62
2018-08-16T07:18:58.953Z,100967.27
2018-08-16T07:21:28.224Z,100966.48
2018-08-16T07:23:57.171Z,100964.28
2018-08-16T07:26:27.340Z,100967.55
2018-08-16T07:28:56.810Z,100966.21
2018-08-16T07:31:25.796Z,100965.83
2018-08-16T07:33:54.898Z,100960.96
2018-08-16T07:36:23.844Z,100964.77
2018-08-16T07:38:52.738Z,100957.95
2018-08-16T07:41:21.734Z,100962.38
2018-08-16T07:43:51.122Z,100955.78
2018-08-16T07:46:20.173Z,100957.86
2018-08-16T07:48:50.112Z,100955.59
2018-08-16T07:51:19.150Z,100955.16
2018-08-16T07:53:47.956Z,100949.56
2018-08-16T07:56:18.263Z,100946.16
2018-08-16T07:58:47.143Z,100946.55
2018-08-16T08:01:15.986Z,100950.39
2018-08-16T08:03:44.884Z,100955.46
2018-08-16T08:06:15.784Z,100954.12
2018-08-16T08:08:48.301Z,100949.75
2018-08-16T08:11:17.708Z,100944.20
2018-08-16T08:13:46.837Z,100951.84
2018-08-16T08:16:15.903Z,100947.53
2018-08-16T08:18:44.840Z,100945.53
2018-08-16T08:21:13.697Z,100940.99
2018-08-16T08:23:43.246Z,100941.86
2018-08-16T08:26:12.215Z,100940.95
2018-08-16T08:28:42.111Z,100940.67
2018-08-16T08:31:10.911Z,100939.34
2018-08-16T08:33:40.250Z,100941.98
2018-08-16T08:36:20.073Z,100946.19
2018-08-16T08:38:48.870Z,100937.42
2018-08-16T08:41:17.778Z,100941.37
2018-08-16T08:43:57.451Z,100943.32
2018-08-16T08:46:26.306Z,100934.01
2018-08-16T08:48:55.183Z,100935.11
2018-08-16T08:51:23.998Z,100934.19
2018-08-16T08:55:01.140Z,100920.08
2018-08-16T08:57:40.744Z,100927.66
2018-08-16T09:00:09.767Z,100916.13
2018-08-16T09:02:38.623Z,100920.78
2018-08-16T09:05:07.693Z,100922.82
2018-08-16T09:07:36.491Z,100920.66
2018-08-16T09:11:15.184Z,100917.06
2018-08-16T09:13:57.198Z,100914.42
2018-08-16T09:16:28.042Z,100906.64
2018-08-16T09:18:57.300Z,100904.20
2018-08-16T09:21:32.045Z,100907.70
2018-08-16T09:24:00.968Z,100905.64
2018-08-16T09:26:36.812Z,100896.61
2018-08-16T09:30:18.490Z,100897.98
2018-08-16T09:32:58.294Z,100898.06
2018-08-16T09:35:28.063Z,100897.02
2018-08-16T09:37:57.282Z,100889.14
2018-08-16T09:40:27.243Z,100891.03
2018-08-16T09:42:56.177Z,100889.75
2018-08-16T09:45:35.911Z,100896.70
2018-08-16T09:48:15.647Z,100886.38
2018-08-16T09:50:44.625Z,100885.38
2018-08-16T09:53:13.526Z,100878.45
2018-08-16T09:55:42.459Z,100882.59
2018-08-16T09:58:11.383Z,100881.94
2018-08-16T10:00:46.551Z,100875.13
2018-08-16T10:03:24.161Z,100868.23
2018-08-16T10:05:53.139Z,100873.98
2018-08-16T10:08:21.943Z,100864.41
2018-08-16T10:10:52.091Z,100862.06
2018-08-16T10:13:20.941Z,100865.86
2018-08-16T10:15:49.718Z,100854.75
2018-08-16T10:18:18.441Z,100848.67
2018-08-16T10:20:49.297Z,100843.96
2018-08-16T10:23:18.090Z,100845.76
2018-08-16T10:25:46.875Z,100849.16
2018-08-16T10:28:15.707Z,100843.27
2018-08-16T10:30:44.489Z,100854.03
2018-08-16T10:33:13.394Z,100838.28
2018-08-16T10:35:42.333Z,100836.64
2018-08-16T10:38:11.118Z,100841.03
2018-08-16T10:40:39.951Z,100841.34
2018-08-16T10:43:08.843Z,100840.00
2018-08-16T10:45:37.723Z,100838.78
2018-08-16T10:48:06.585Z,100836.13
2018-08-16T10:50:35.311Z,100835.06
2018-08-16T10:53:04.211Z,100832.03
2018-08-16T10:55:33.088Z,100829.44
2018-08-16T10:58:01.912Z,100825.27
2018-08-16T11:00:30.772Z,100824.48
2018-08-16T11:02:59.813Z,100810.66
2018-08-16T11:05:28.641Z,100823.78
2018-08-16T11:07:57.540Z,100810.20
2018-08-16T11:10:26.310Z,100815.64
2018-08-16T11:12:56.087Z,100813.27
2018-08-16T11:15:24.954Z,100816.59
2018-08-16T11:17:53.779Z,100818.86
2018-08-16T11:20:22.582Z,100812.05
2018-08-16T11:22:51.828Z,100805.91
2018-08-16T11:25:20.690Z,100800.61
2018-08-16T11:27:49.710Z,100807.34
2018-08-16T11:30:18.708Z,100805.58
2018-08-16T11:32:51.232Z,100798.44
2018-08-16T11:35:20.167Z,100796.46
2018-08-16T11:37:49.122Z,100799.81
2018-08-16T11:40:17.901Z,100800.12
2018-08-16T11:42:47.839Z,100793.09
2018-08-16T11:45:16.639Z,100790.91
2018-08-16T11:47:45.604Z,100792.85
2018-08-16T11:50:14.472Z,100787.89
2018-08-16T11:52:44.349Z,100786.13
2018-08-16T11:55:13.494Z,100781.25
2018-08-16T11:57:42.817Z,100778.50
2018-08-16T12:00:11.723Z,100780.13
2018-08-16T12:02:42.544Z,100781.73
2018-08-16T12:05:11.390Z,100774.37
2018-08-16T12:07:40.159Z,100771.43
2018-08-16T12:10:09.162Z,100776.94
2018-08-16T12:12:38.979Z,100771.55
2018-08-16T12:15:08.787Z,100768.51
2018-08-16T12:17:37.810Z,100766.22
2018-08-16T12:20:07.688Z,100765.59
2018-08-16T12:22:38.662Z,100767.41
2018-08-16T12:25:08.046Z,100768.73
2018-08-16T12:27:36.825Z,100761.77
2018-08-16T12:30:07.467Z,100761.27
2018-08-16T12:32:37.371Z,100750.61
2018-08-16T12:35:07.208Z,100748.58
2018-08-16T12:37:36.083Z,100746.41
2018-08-16T12:40:06.546Z,100733.56
2018-08-16T12:42:35.484Z,100735.52
2018-08-16T12:45:04.464Z,100740.41
2018-08-16T12:47:33.323Z,100733.67
2018-08-16T12:50:02.136Z,100734.01
2018-08-16T12:52:31.075Z,100727.70
2018-08-16T12:55:00.203Z,100722.53
2018-08-16T12:57:29.030Z,100726.55
2018-08-16T12:59:57.911Z,100720.84
2018-08-16T13:02:26.699Z,100712.16
2018-08-16T13:04:57.811Z,100712.38
2018-08-16T13:07:26.847Z,100712.23
2018-08-16T13:09:55.594Z,100691.75
2018-08-16T13:12:24.363Z,100703.63
2018-08-16T13:14:53.373Z,100700.02
2018-08-16T13:17:22.221Z,100699.55
2018-08-16T13:19:50.999Z,100695.03
2018-08-16T13:22:20.094Z,100701.56
2018-08-16T13:24:49.126Z,100691.94
2018-08-16T13:27:18.106Z,100704.83
2018-08-16T13:29:47.242Z,100687.24
2018-08-16T13:32:16.198Z,100697.34
2018-08-16T13:34:45.261Z,100692.52
2018-08-16T13:37:14.343Z,100694.81
2018-08-16T13:39:43.038Z,100686.93
2018-08-16T13:42:11.848Z,100699.41
2018-08-16T13:44:41.682Z,100680.45
2018-08-16T13:47:10.871Z,100685.67
2018-08-16T13:49:39.783Z,100684.10
2018-08-16T13:52:09.415Z,100683.73
2018-08-16T13:54:39.362Z,100682.31
2018-08-16T13:57:08.232Z,100685.83
2018-08-16T13:59:37.080Z,100674.63
2018-08-16T14:02:06.165Z,100674.05
2018-08-16T14:04:35.118Z,100661.63
2018-08-16T14:07:04.037Z,100666.98
2018-08-16T14:09:32.758Z,100661.57
2018-08-16T14:12:01.581Z,100665.92
2018-08-16T14:14:32.454Z,100664.72
2018-08-16T14:17:01.357Z,100665.53
2018-08-16T14:19:30.211Z,100660.61
2018-08-16T14:21:59.077Z,100653.35
2018-08-16T14:24:29.103Z,100653.52
2018-08-16T14:26:57.999Z,100658.11
2018-08-16T14:29:26.782Z,100657.30
2018-08-16T14:31:55.768Z,100660.61
2018-08-16T14:34:26.628Z,100656.19
2018-08-16T14:36:55.451Z,100646.03
2018-08-16T14:39:24.241Z,100648.49
2018-08-16T14:41:53.087Z,100651.25
2018-08-16T14:44:22.945Z,100649.22
2018-08-16T14:46:51.814Z,100651.61
2018-08-16T14:49:20.529Z,100657.89
2018-08-16T14:51:49.475Z,100651.93
2018-08-16T14:54:18.594Z,100644.98
2018-08-16T14:56:47.585Z,100663.73
2018-08-16T14:59:17.422Z,100663.20
2018-08-16T15:01:46.505Z,100664.83
2018-08-16T15:04:15.500Z,100657.56
2018-08-16T15:06:46.486Z,100657.36
2018-08-16T15:09:15.273Z,100652.88
2018-08-16T15:11:44.098Z,100652.70
2018-08-16T15:14:13.083Z,100646.61
2018-08-16T15:16:41.969Z,100643.38
2018-08-16T15:19:12.081Z,100648.13
2018-08-16T15:21:41.196Z,100652.00
2018-08-16T15:24:09.970Z,100640.37
2018-08-16T15:26:39.812Z,100642.26
2018-08-16T15:29:10.339Z,100638.56
2018-08-16T15:31:39.339Z,100634.35
2018-08-16T15:34:08.645Z,100631.72
2018-08-16T15:36:37.538Z,100629.38
2018-08-16T15:39:08.432Z,100630.77
2018-08-16T15:41:37.560Z,100631.20
2018-08-16T15:44:06.879Z,100633.21
2018-08-16T15:46:35.738Z,100628.50
2018-08-16T15:49:04.563Z,100629.34
2018-08-16T15:51:34.306Z,100633.42
2018-08-16T15:54:03.438Z,100623.50
2018-08-16T15:56:32.378Z,100629.98
2018-08-16T15:59:01.260Z,100630.22
2018-08-16T16:01:30.082Z,100640.42
2018-08-16T16:03:59.107Z,100629.41
2018-08-16T16:06:28.076Z,100632.54
2018-08-16T16:08:56.876Z,100632.50
2018-08-16T16:11:25.630Z,100633.75
2018-08-16T16:13:54.399Z,100627.94
2018-08-16T16:16:23.245Z,100626.56
2018-08-16T16:18:52.102Z,100622.00
2018-08-16T16:21:21.042Z,100626.61
2018-08-16T16:23:50.008Z,100629.66
2018-08-16T16:26:18.848Z,100626.95
2018-08-16T16:28:48.681Z,100627.34
2018-08-16T16:31:17.480Z,100625.09
2018-08-16T16:33:46.260Z,100620.45
2018-08-16T16:36:15.003Z,100620.91
2018-08-16T16:38:44.049Z,100619.69
2018-08-16T16:41:12.847Z,100618.34
2018-08-16T16:43:42.049Z,100620.05
2018-08-16T16:46:10.827Z,100619.23
2018-08-16T16:48:39.783Z,100626.00
2018-08-16T16:51:08.552Z,100623.95
2018-08-16T16:53:37.338Z,100621.89
2018-08-16T16:56:06.198Z,100618.49
2018-08-16T16:58:35.346Z,100626.31
2018-08-16T17:01:04.130Z,100623.56
2018-08-16T17:03:33.039Z,100626.22
2018-08-16T17:06:03.884Z,100631.11
2018-08-16T17:08:32.700Z,100631.67
2018-08-16T17:11:01.615Z,100635.17
2018-08-16T17:13:30.469Z,100631.83
2018-08-16T17:15:59.287Z,100640.23
2018-08-16T17:18:28.307Z,100641.19
2018-08-16T17:20:57.086Z,100637.87
2018-08-16T17:23:26.282Z,100645.08
2018-08-16T17:25:55.107Z,100643.14
2018-08-16T17:28:24.032Z,100637.66
2018-08-16T17:30:52.894Z,100640.48
2018-08-16T17:33:21.715Z,100638.22
2018-08-16T17:35:50.601Z,100647.83
2018-08-16T17:38:19.461Z,100646.00
2018-08-16T17:40:48.387Z,100642.09
2018-08-16T17:43:17.211Z,100642.05
2018-08-16T17:45:46.078Z,100649.07
2018-08-16T17:48:16.011Z,100651.02
2018-08-16T17:50:44.692Z,100651.46
2018-08-16T17:53:13.510Z,100647.25
2018-08-16T17:55:42.370Z,100658.42
2018-08-16T17:58:11.404Z,100649.91
2018-08-16T18:00:40.233Z,100652.14
2018-08-16T18:03:09.086Z,100658.41
2018-08-16T18:05:37.814Z,100656.12
2018-08-16T18:08:06.691Z,100651.98
2018-08-16T18:10:35.504Z,100657.14
2018-08-16T18:13:04.294Z,100665.39
2018-08-16T18:15:33.006Z,100664.94
2018-08-16T18:18:01.814Z,100674.84
2018-08-16T18:20:30.610Z,100676.67
2018-08-16T18:22:59.374Z,100668.57
2018-08-16T18:25:28.442Z,100679.24
2018-08-16T18:27:57.335Z,100673.11
2018-08-16T18:30:26.222Z,100677.44
2018-08-16T18:32:54.902Z,100678.50
2018-08-16T18:35:23.694Z,100677.37
2018-08-16T18:37:52.578Z,100669.61
2018-08-16T18:40:21.436Z,100675.81
2018-08-16T18:42:50.237Z,100673.02
2018-08-16T18:45:18.991Z,100677.25
2018-08-16T18:47:47.887Z,100681.45
2018-08-16T18:50:17.610Z,100686.47
2018-08-16T18:52:46.406Z,100690.69
2018-08-16T18:55:15.266Z,100694.97
2018-08-16T18:57:45.220Z,100703.05
2018-08-16T19:00:14.096Z,100704.31
2018-08-16T19:02:42.902Z,100705.06
2018-08-16T19:05:11.806Z,100707.53
2018-08-16T19:07:40.762Z,100706.41
2018-08-16T19:10:10.733Z,100704.60
2018-08-16T19:12:39.516Z,100712.52
2018-08-16T19:15:08.462Z,100711.76
2018-08-16T19:17:37.327Z,100704.72
2018-08-16T19:20:06.563Z,100711.81
2018-08-16T19:22:35.393Z,100710.78
2018-08-16T19:25:04.202Z,100715.14
2018-08-16T19:27:32.992Z,100714.59
2018-08-16T19:30:01.886Z,100725.48
2018-08-16T19:32:30.550Z,100717.31
2018-08-16T19:34:59.350Z,100714.06
2018-08-16T19:37:28.170Z,100717.33
2018-08-16T19:39:57.025Z,100718.95
2018-08-16T19:42:25.838Z,100717.77
2018-08-16T19:44:54.730Z,100710.69
2018-08-16T19:47:23.524Z,100717.66
2018-08-16T19:49:52.336Z,100717.66
2018-08-16T19:52:21.244Z,100714.19
2018-08-16T19:54:50.101Z,100715.56
2018-08-16T19:57:18.948Z,100711.20
2018-08-16T19:59:47.730Z,100702.48
2018-08-16T20:02:16.648Z,100696.72
2018-08-16T20:04:45.559Z,100703.50
2018-08-16T20:07:15.506Z,100697.27
2018-08-16T20:09:44.360Z,100705.17
2018-08-16T20:12:13.240Z,100701.94
2018-08-16T20:14:42.110Z,100702.73
2018-08-16T20:17:11.073Z,100704.39
2018-08-16T20:19:39.905Z,100693.79
2018-08-16T20:22:17.355Z,100689.62
2018-08-16T20:24:46.462Z,100693.26
2018-08-16T20:27:15.408Z,100697.75
2018-08-16T20:29:44.954Z,100697.61
2018-08-16T20:32:13.921Z,100700.48
2018-08-16T20:34:42.788Z,100692.90
2018-08-16T20:37:11.591Z,100705.41
2018-08-16T20:39:40.563Z,100709.83
2018-08-16T20:42:09.604Z,100706.32
2018-08-16T20:44:38.419Z,100707.44
2018-08-16T20:47:07.425Z,100703.62
2018-08-16T20:49:36.581Z,100702.80
2018-08-16T20:52:05.504Z,100702.02
2018-08-16T20:54:34.336Z,100703.61
2018-08-16T20:57:03.196Z,100704.11
2018-08-16T20:59:32.000Z,100702.19
2018-08-16T21:02:00.884Z,100708.67
2018-08-16T21:04:29.775Z,100711.28
2018-08-16T21:06:58.568Z,100713.00
2018-08-16T21:09:27.384Z,100714.22
2018-08-16T21:11:56.371Z,100711.59
2018-08-16T21:14:25.157Z,100710.91
2018-08-16T21:16:53.931Z,100718.90
2018-08-16T21:19:22.772Z,100719.05
2018-08-16T21:21:51.638Z,100723.52
2018-08-16T21:24:20.606Z,100717.94
2018-08-16T21:26:49.420Z,100727.51
2018-08-16T21:29:18.186Z,100721.17
2018-08-16T21:31:46.935Z,100722.44
2018-08-16T21:34:15.702Z,100727.56
2018-08-16T21:36:44.572Z,100727.06
2018-08-16T21:39:13.601Z,100722.77
2018-08-16T21:41:42.451Z,100731.74
2018-08-16T21:44:11.803Z,100735.19
2018-08-16T21:46:40.660Z,100735.75
2018-08-16T21:49:09.451Z,100733.10
2018-08-16T21:51:38.355Z,100736.72
2018-08-16T21:54:07.453Z,100738.52
2018-08-16T21:56:36.214Z,100735.75
2018-08-16T21:59:05.079Z,100736.69
2018-08-16T22:01:34.111Z,100734.20
2018-08-16T22:04:02.850Z,100740.70
2018-08-16T22:06:42.614Z,100740.22
2018-08-16T22:09:13.075Z,100747.05
2018-08-16T22:11:41.903Z,100749.12
2018-08-16T22:14:10.764Z,100747.95
2018-08-16T22:16:39.679Z,100743.55
2018-08-16T22:19:08.529Z,100748.02
2018-08-16T22:21:37.398Z,100743.35
2018-08-16T22:24:06.194Z,100743.95
2018-08-16T22:26:34.970Z,100745.66
2018-08-16T22:29:03.710Z,100744.64
2018-08-16T22:31:32.574Z,100741.00
2018-08-16T22:34:01.423Z,100745.17
2018-08-16T22:36:30.287Z,100746.34
2018-08-16T22:39:00.084Z,100744.69
2018-08-16T22:41:28.879Z,100748.71
2018-08-16T22:43:57.587Z,100743.34
2018-08-16T22:46:26.439Z,100742.09
2018-08-16T22:48:55.295Z,100734.38
2018-08-16T22:51:24.027Z,100739.08
2018-08-16T22:53:52.852Z,100739.67
2018-08-16T22:56:21.739Z,100739.18
2018-08-16T22:58:50.592Z,100730.93
2018-08-16T23:01:19.464Z,100739.61
2018-08-16T23:03:48.229Z,100735.75
2018-08-16T23:06:17.057Z,100737.83
2018-08-16T23:08:46.899Z,100728.41
2018-08-16T23:11:15.835Z,100730.15
2018-08-16T23:13:44.667Z,100728.65
2018-08-16T23:16:13.490Z,100730.19
2018-08-16T23:18:42.359Z,100724.70
2018-08-16T23:21:11.042Z,100728.68
2018-08-16T23:23:39.878Z,100726.39
2018-08-16T23:26:08.584Z,100726.27
2018-08-16T23:28:37.320Z,100720.44
2018-08-16T23:31:06.169Z,100720.36
2018-08-16T23:33:35.027Z,100720.05
2018-08-16T23:36:03.834Z,100719.13
2018-08-16T23:38:32.721Z,100715.04
2018-08-16T23:41:01.467Z,100710.98
2018-08-16T23:43:30.222Z,100715.27
2018-08-16T23:45:59.120Z,100718.48
2018-08-16T23:48:31.277Z,100710.86
2018-08-16T23:51:00.285Z,100714.05
2018-08-16T23:53:29.283Z,100714.00
2018-08-16T23:55:58.158Z,100705.28
2018-08-16T23:58:26.989Z,100706.30
